sensor_id;sensor_type;location;lat;lon;timestamp;temperature;humidity
20590;DHT22;10453;50.810;12.540;2024-03-29T00:00:52;7.00;99.90
20590;DHT22;10453;50.810;12.540;2024-03-29T00:05:09;7.00;99.90
20590;DHT22;10453;50.810;12.540;2024-03-29T00:09:25;6.90;99.90
20590;DHT22;10453;50.810;12.540;2024-03-29T00:13:41;6.90;99.90
20590;DHT22;10453;50.810;12.540;2024-03-29T00:17:58;6.80;99.90
20590;DHT22;10453;50.810;12.540;2024-03-29T00:22:14;6.60;99.90
20590;DHT22;10453;50.810;12.540;2024-03-29T00:26:31;6.50;99.90
20590;DHT22;10453;50.810;12.540;2024-03-29T00:30:47;6.60;99.90
20590;DHT22;10453;50.810;12.540;2024-03-29T00:35:03;6.50;99.90
20590;DHT22;10453;50.810;12.540;2024-03-29T00:39:20;6.40;99.90
20590;DHT22;10453;50.810;12.540;2024-03-29T00:43:36;6.20;99.90
20590;DHT22;10453;50.810;12.540;2024-03-29T00:47:52;6.20;99.90
20590;DHT22;10453;50.810;12.540;2024-03-29T00:52:09;6.10;99.90
20590;DHT22;10453;50.810;12.540;2024-03-29T00:56:25;6.00;99.90
20590;DHT22;10453;50.810;12.540;2024-03-29T01:00:41;6.00;99.90
20590;DHT22;10453;50.810;12.540;2024-03-29T01:04:57;6.00;99.90
20590;DHT22;10453;50.810;12.540;2024-03-29T01:09:14;6.00;99.90
20590;DHT22;10453;50.810;12.540;2024-03-29T01:13:30;5.80;99.90
20590;DHT22;10453;50.810;12.540;2024-03-29T01:17:46;5.70;99.90
20590;DHT22;10453;50.810;12.540;2024-03-29T01:22:03;5.70;99.90
20590;DHT22;10453;50.810;12.540;2024-03-29T01:26:19;5.80;99.90
20590;DHT22;10453;50.810;12.540;2024-03-29T01:30:35;5.90;99.90
20590;DHT22;10453;50.810;12.540;2024-03-29T01:34:52;5.60;99.90
20590;DHT22;10453;50.810;12.540;2024-03-29T01:39:08;5.20;99.90
20590;DHT22;10453;50.810;12.540;2024-03-29T01:43:27;4.80;99.90
20590;DHT22;10453;50.810;12.540;2024-03-29T01:47:46;4.40;99.90
20590;DHT22;10453;50.810;12.540;2024-03-29T01:52:03;4.30;99.90
20590;DHT22;10453;50.810;12.540;2024-03-29T01:56:21;4.40;99.90
20590;DHT22;10453;50.810;12.540;2024-03-29T02:00:56;4.70;99.90
20590;DHT22;10453;50.810;12.540;2024-03-29T02:05:14;5.10;99.90
20590;DHT22;10453;50.810;12.540;2024-03-29T02:09:30;5.30;99.90
20590;DHT22;10453;50.810;12.540;2024-03-29T02:13:47;5.80;99.90
20590;DHT22;10453;50.810;12.540;2024-03-29T02:18:04;6.20;99.90
20590;DHT22;10453;50.810;12.540;2024-03-29T02:22:22;6.30;99.90
20590;DHT22;10453;50.810;12.540;2024-03-29T02:26:40;6.70;99.90
20590;DHT22;10453;50.810;12.540;2024-03-29T02:30:58;6.90;99.90
20590;DHT22;10453;50.810;12.540;2024-03-29T02:35:14;7.10;99.90
20590;DHT22;10453;50.810;12.540;2024-03-29T02:39:30;7.10;99.90
20590;DHT22;10453;50.810;12.540;2024-03-29T02:43:47;7.10;99.90
20590;DHT22;10453;50.810;12.540;2024-03-29T02:48:03;7.10;99.90
20590;DHT22;10453;50.810;12.540;2024-03-29T02:52:19;7.20;99.90
20590;DHT22;10453;50.810;12.540;2024-03-29T02:56:36;6.90;99.90
20590;DHT22;10453;50.810;12.540;2024-03-29T03:00:52;6.60;99.90
20590;DHT22;10453;50.810;12.540;2024-03-29T03:05:08;6.40;99.90
20590;DHT22;10453;50.810;12.540;2024-03-29T03:09:25;6.20;99.90
20590;DHT22;10453;50.810;12.540;2024-03-29T03:14:00;6.20;99.90
20590;DHT22;10453;50.810;12.540;2024-03-29T03:18:16;6.20;99.90
20590;DHT22;10453;50.810;12.540;2024-03-29T03:22:32;6.20;99.90
20590;DHT22;10453;50.810;12.540;2024-03-29T03:26:49;6.40;99.90
20590;DHT22;10453;50.810;12.540;2024-03-29T03:31:05;6.60;99.90
20590;DHT22;10453;50.810;12.540;2024-03-29T03:35:23;6.60;99.90
20590;DHT22;10453;50.810;12.540;2024-03-29T03:39:39;6.80;99.90
20590;DHT22;10453;50.810;12.540;2024-03-29T03:43:56;6.90;99.90
20590;DHT22;10453;50.810;12.540;2024-03-29T03:48:12;6.90;99.90
20590;DHT22;10453;50.810;12.540;2024-03-29T03:52:28;6.90;99.90
20590;DHT22;10453;50.810;12.540;2024-03-29T03:56:45;7.00;99.90
20590;DHT22;10453;50.810;12.540;2024-03-29T04:01:05;7.10;99.90
20590;DHT22;10453;50.810;12.540;2024-03-29T04:05:21;7.10;99.90
20590;DHT22;10453;50.810;12.540;2024-03-29T04:09:37;7.10;99.90
20590;DHT22;10453;50.810;12.540;2024-03-29T04:13:54;7.20;99.90
20590;DHT22;10453;50.810;12.540;2024-03-29T04:18:10;7.30;99.90
20590;DHT22;10453;50.810;12.540;2024-03-29T04:22:30;7.40;99.90
20590;DHT22;10453;50.810;12.540;2024-03-29T04:26:47;7.50;99.90
20590;DHT22;10453;50.810;12.540;2024-03-29T04:31:03;7.50;99.90
20590;DHT22;10453;50.810;12.540;2024-03-29T04:35:20;7.60;99.90
20590;DHT22;10453;50.810;12.540;2024-03-29T04:39:36;7.70;99.90
20590;DHT22;10453;50.810;12.540;2024-03-29T04:43:52;7.80;99.90
20590;DHT22;10453;50.810;12.540;2024-03-29T04:48:09;7.80;99.90
20590;DHT22;10453;50.810;12.540;2024-03-29T04:52:25;7.90;99.90
20590;DHT22;10453;50.810;12.540;2024-03-29T04:56:42;8.00;99.90
20590;DHT22;10453;50.810;12.540;2024-03-29T05:00:58;7.90;99.90
20590;DHT22;10453;50.810;12.540;2024-03-29T05:05:15;7.90;99.90
20590;DHT22;10453;50.810;12.540;2024-03-29T05:09:31;7.80;99.90
20590;DHT22;10453;50.810;12.540;2024-03-29T05:13:47;7.90;99.90
20590;DHT22;10453;50.810;12.540;2024-03-29T05:18:04;7.90;99.90
20590;DHT22;10453;50.810;12.540;2024-03-29T05:22:21;7.90;99.90
20590;DHT22;10453;50.810;12.540;2024-03-29T05:26:37;8.00;99.90
20590;DHT22;10453;50.810;12.540;2024-03-29T05:30:53;7.90;99.90
20590;DHT22;10453;50.810;12.540;2024-03-29T05:35:10;8.10;99.90
20590;DHT22;10453;50.810;12.540;2024-03-29T05:39:26;8.10;99.90
20590;DHT22;10453;50.810;12.540;2024-03-29T05:43:42;8.10;99.90
20590;DHT22;10453;50.810;12.540;2024-03-29T05:47:59;8.00;99.90
20590;DHT22;10453;50.810;12.540;2024-03-29T05:52:15;8.00;99.90
20590;DHT22;10453;50.810;12.540;2024-03-29T05:56:32;8.20;99.90
20590;DHT22;10453;50.810;12.540;2024-03-29T06:00:49;8.30;99.90
20590;DHT22;10453;50.810;12.540;2024-03-29T06:05:06;8.30;99.90
20590;DHT22;10453;50.810;12.540;2024-03-29T06:09:22;8.40;99.90
20590;DHT22;10453;50.810;12.540;2024-03-29T06:13:39;8.40;99.90
20590;DHT22;10453;50.810;12.540;2024-03-29T06:18:07;8.40;99.90
20590;DHT22;10453;50.810;12.540;2024-03-29T06:22:24;8.50;99.90
20590;DHT22;10453;50.810;12.540;2024-03-29T06:26:41;8.70;99.90
20590;DHT22;10453;50.810;12.540;2024-03-29T06:30:58;8.80;99.90
20590;DHT22;10453;50.810;12.540;2024-03-29T06:35:16;9.00;99.90
20590;DHT22;10453;50.810;12.540;2024-03-29T06:39:33;9.20;99.90
20590;DHT22;10453;50.810;12.540;2024-03-29T06:43:49;9.50;99.90
20590;DHT22;10453;50.810;12.540;2024-03-29T06:48:07;9.60;99.90
20590;DHT22;10453;50.810;12.540;2024-03-29T06:52:24;9.70;99.90
20590;DHT22;10453;50.810;12.540;2024-03-29T06:56:40;9.80;99.90
20590;DHT22;10453;50.810;12.540;2024-03-29T07:00:56;9.90;99.90
20590;DHT22;10453;50.810;12.540;2024-03-29T07:05:15;10.00;99.90
20590;DHT22;10453;50.810;12.540;2024-03-29T07:09:31;10.10;99.90
20590;DHT22;10453;50.810;12.540;2024-03-29T07:13:47;10.10;99.90
20590;DHT22;10453;50.810;12.540;2024-03-29T07:18:03;10.10;99.90
20590;DHT22;10453;50.810;12.540;2024-03-29T07:22:20;10.30;99.90
20590;DHT22;10453;50.810;12.540;2024-03-29T07:26:36;10.40;99.90
20590;DHT22;10453;50.810;12.540;2024-03-29T07:30:53;10.50;99.90
20590;DHT22;10453;50.810;12.540;2024-03-29T07:35:09;10.50;99.90
20590;DHT22;10453;50.810;12.540;2024-03-29T07:39:25;10.60;99.90
20590;DHT22;10453;50.810;12.540;2024-03-29T07:43:55;10.80;99.90
20590;DHT22;10453;50.810;12.540;2024-03-29T07:48:21;11.00;99.90
20590;DHT22;10453;50.810;12.540;2024-03-29T07:52:37;11.00;99.90
20590;DHT22;10453;50.810;12.540;2024-03-29T07:56:54;11.10;99.90
20590;DHT22;10453;50.810;12.540;2024-03-29T08:01:10;11.10;99.90
20590;DHT22;10453;50.810;12.540;2024-03-29T08:05:27;11.20;99.90
20590;DHT22;10453;50.810;12.540;2024-03-29T08:09:44;11.40;99.90
20590;DHT22;10453;50.810;12.540;2024-03-29T08:14:00;11.60;99.90
20590;DHT22;10453;50.810;12.540;2024-03-29T08:18:17;11.70;99.90
20590;DHT22;10453;50.810;12.540;2024-03-29T08:22:33;11.70;99.90
20590;DHT22;10453;50.810;12.540;2024-03-29T08:26:49;11.70;99.80
20590;DHT22;10453;50.810;12.540;2024-03-29T08:31:06;11.70;99.90
20590;DHT22;10453;50.810;12.540;2024-03-29T08:35:25;11.80;99.90
20590;DHT22;10453;50.810;12.540;2024-03-29T08:39:41;11.80;99.90
20590;DHT22;10453;50.810;12.540;2024-03-29T08:43:58;11.90;99.90
20590;DHT22;10453;50.810;12.540;2024-03-29T08:48:14;12.30;99.90
20590;DHT22;10453;50.810;12.540;2024-03-29T08:52:30;12.40;99.90
20590;DHT22;10453;50.810;12.540;2024-03-29T08:56:47;12.80;97.70
20590;DHT22;10453;50.810;12.540;2024-03-29T09:01:04;13.10;95.70
20590;DHT22;10453;50.810;12.540;2024-03-29T09:05:21;13.30;95.80
20590;DHT22;10453;50.810;12.540;2024-03-29T09:09:38;13.00;94.10
20590;DHT22;10453;50.810;12.540;2024-03-29T09:13:57;13.10;95.20
20590;DHT22;10453;50.810;12.540;2024-03-29T09:18:14;13.30;94.90
20590;DHT22;10453;50.810;12.540;2024-03-29T09:22:38;13.70;93.20
20590;DHT22;10453;50.810;12.540;2024-03-29T09:26:54;14.00;92.40
20590;DHT22;10453;50.810;12.540;2024-03-29T09:31:10;14.20;90.50
20590;DHT22;10453;50.810;12.540;2024-03-29T09:35:27;14.20;88.10
20590;DHT22;10453;50.810;12.540;2024-03-29T09:39:43;14.30;88.70
20590;DHT22;10453;50.810;12.540;2024-03-29T09:44:02;14.30;89.60
20590;DHT22;10453;50.810;12.540;2024-03-29T09:48:19;14.60;86.60
20590;DHT22;10453;50.810;12.540;2024-03-29T09:52:37;14.90;90.50
20590;DHT22;10453;50.810;12.540;2024-03-29T09:56:55;15.40;83.90
20590;DHT22;10453;50.810;12.540;2024-03-29T10:01:13;15.50;86.50
20590;DHT22;10453;50.810;12.540;2024-03-29T10:05:30;15.30;79.50
20590;DHT22;10453;50.810;12.540;2024-03-29T10:09:47;15.20;76.10
20590;DHT22;10453;50.810;12.540;2024-03-29T10:14:04;15.10;78.00
20590;DHT22;10453;50.810;12.540;2024-03-29T10:18:20;15.10;79.50
20590;DHT22;10453;50.810;12.540;2024-03-29T10:22:46;15.20;75.40
20590;DHT22;10453;50.810;12.540;2024-03-29T10:27:03;15.10;67.40
20590;DHT22;10453;50.810;12.540;2024-03-29T10:31:19;15.10;68.90
20590;DHT22;10453;50.810;12.540;2024-03-29T10:35:36;15.10;66.50
20590;DHT22;10453;50.810;12.540;2024-03-29T10:39:52;15.00;68.40
20590;DHT22;10453;50.810;12.540;2024-03-29T10:44:10;14.80;67.30
20590;DHT22;10453;50.810;12.540;2024-03-29T10:48:31;14.70;66.90
20590;DHT22;10453;50.810;12.540;2024-03-29T10:52:49;14.80;67.60
20590;DHT22;10453;50.810;12.540;2024-03-29T10:57:12;14.70;65.00
20590;DHT22;10453;50.810;12.540;2024-03-29T11:01:32;14.70;68.60
20590;DHT22;10453;50.810;12.540;2024-03-29T11:05:50;14.90;65.40
20590;DHT22;10453;50.810;12.540;2024-03-29T11:10:13;14.80;69.90
20590;DHT22;10453;50.810;12.540;2024-03-29T11:14:37;14.90;68.30
20590;DHT22;10453;50.810;12.540;2024-03-29T11:18:56;14.80;70.20
20590;DHT22;10453;50.810;12.540;2024-03-29T11:23:14;14.60;68.40
20590;DHT22;10453;50.810;12.540;2024-03-29T11:27:31;14.60;73.90
20590;DHT22;10453;50.810;12.540;2024-03-29T11:31:48;14.50;75.50
20590;DHT22;10453;50.810;12.540;2024-03-29T11:36:18;14.40;79.90
20590;DHT22;10453;50.810;12.540;2024-03-29T11:40:34;14.30;84.10
20590;DHT22;10453;50.810;12.540;2024-03-29T11:44:50;14.00;96.20
20590;DHT22;10453;50.810;12.540;2024-03-29T11:49:07;13.70;99.90
20590;DHT22;10453;50.810;12.540;2024-03-29T11:53:24;13.50;99.90
20590;DHT22;10453;50.810;12.540;2024-03-29T11:57:40;13.10;99.90
20590;DHT22;10453;50.810;12.540;2024-03-29T12:01:56;13.00;99.90
20590;DHT22;10453;50.810;12.540;2024-03-29T12:06:14;12.80;99.90
20590;DHT22;10453;50.810;12.540;2024-03-29T12:10:31;12.90;99.90
20590;DHT22;10453;50.810;12.540;2024-03-29T12:14:47;13.10;99.90
20590;DHT22;10453;50.810;12.540;2024-03-29T12:19:04;13.50;99.90
20590;DHT22;10453;50.810;12.540;2024-03-29T12:23:21;14.00;99.90
20590;DHT22;10453;50.810;12.540;2024-03-29T12:27:37;14.00;99.90
20590;DHT22;10453;50.810;12.540;2024-03-29T12:32:01;14.20;99.90
20590;DHT22;10453;50.810;12.540;2024-03-29T12:36:18;14.40;99.90
20590;DHT22;10453;50.810;12.540;2024-03-29T12:40:37;14.60;99.90
20590;DHT22;10453;50.810;12.540;2024-03-29T12:44:54;14.70;99.90
20590;DHT22;10453;50.810;12.540;2024-03-29T12:49:11;14.70;99.90
20590;DHT22;10453;50.810;12.540;2024-03-29T12:53:29;14.80;99.90
20590;DHT22;10453;50.810;12.540;2024-03-29T12:57:46;14.50;99.90
20590;DHT22;10453;50.810;12.540;2024-03-29T13:02:02;14.70;99.90
20590;DHT22;10453;50.810;12.540;2024-03-29T13:06:20;14.80;99.90
20590;DHT22;10453;50.810;12.540;2024-03-29T13:10:37;15.00;99.90
20590;DHT22;10453;50.810;12.540;2024-03-29T13:14:55;15.00;99.90
20590;DHT22;10453;50.810;12.540;2024-03-29T13:19:11;15.20;99.90
20590;DHT22;10453;50.810;12.540;2024-03-29T13:23:27;15.50;99.90
20590;DHT22;10453;50.810;12.540;2024-03-29T13:27:47;16.30;99.90
20590;DHT22;10453;50.810;12.540;2024-03-29T13:32:04;17.50;99.90
20590;DHT22;10453;50.810;12.540;2024-03-29T13:36:21;17.10;99.90
20590;DHT22;10453;50.810;12.540;2024-03-29T13:40:38;16.80;99.90
20590;DHT22;10453;50.810;12.540;2024-03-29T13:44:55;16.80;99.90
20590;DHT22;10453;50.810;12.540;2024-03-29T13:49:12;17.00;99.90
20590;DHT22;10453;50.810;12.540;2024-03-29T13:53:29;17.20;99.90
20590;DHT22;10453;50.810;12.540;2024-03-29T13:57:51;17.10;99.90
20590;DHT22;10453;50.810;12.540;2024-03-29T14:02:07;17.00;99.90
20590;DHT22;10453;50.810;12.540;2024-03-29T14:06:23;16.50;99.90
20590;DHT22;10453;50.810;12.540;2024-03-29T14:10:39;16.50;99.90
20590;DHT22;10453;50.810;12.540;2024-03-29T14:14:56;16.50;99.90
20590;DHT22;10453;50.810;12.540;2024-03-29T14:19:12;16.20;99.90
20590;DHT22;10453;50.810;12.540;2024-03-29T14:23:29;16.40;99.90
20590;DHT22;10453;50.810;12.540;2024-03-29T14:27:45;16.50;99.90
20590;DHT22;10453;50.810;12.540;2024-03-29T14:32:10;16.60;99.90
20590;DHT22;10453;50.810;12.540;2024-03-29T14:36:26;16.70;99.90
20590;DHT22;10453;50.810;12.540;2024-03-29T14:40:43;16.70;99.90
20590;DHT22;10453;50.810;12.540;2024-03-29T14:44:59;16.50;99.90
20590;DHT22;10453;50.810;12.540;2024-03-29T14:49:15;16.50;99.90
20590;DHT22;10453;50.810;12.540;2024-03-29T14:53:33;17.00;99.90
20590;DHT22;10453;50.810;12.540;2024-03-29T14:57:49;17.40;99.90
20590;DHT22;10453;50.810;12.540;2024-03-29T15:02:09;17.10;99.90
20590;DHT22;10453;50.810;12.540;2024-03-29T15:06:25;16.90;99.90
20590;DHT22;10453;50.810;12.540;2024-03-29T15:10:42;17.10;99.90
20590;DHT22;10453;50.810;12.540;2024-03-29T15:14:58;17.20;99.90
20590;DHT22;10453;50.810;12.540;2024-03-29T15:19:15;18.10;99.90
20590;DHT22;10453;50.810;12.540;2024-03-29T15:23:31;17.50;99.90
20590;DHT22;10453;50.810;12.540;2024-03-29T15:27:48;17.20;99.90
20590;DHT22;10453;50.810;12.540;2024-03-29T15:32:23;17.20;99.90
20590;DHT22;10453;50.810;12.540;2024-03-29T15:36:42;17.10;99.90
20590;DHT22;10453;50.810;12.540;2024-03-29T15:40:59;17.00;99.90
20590;DHT22;10453;50.810;12.540;2024-03-29T15:45:15;16.70;99.90
20590;DHT22;10453;50.810;12.540;2024-03-29T15:49:31;16.50;99.90
20590;DHT22;10453;50.810;12.540;2024-03-29T15:53:48;16.40;99.90
20590;DHT22;10453;50.810;12.540;2024-03-29T15:58:05;16.20;99.90
20590;DHT22;10453;50.810;12.540;2024-03-29T16:02:22;16.20;99.90
20590;DHT22;10453;50.810;12.540;2024-03-29T16:06:38;16.30;99.90
20590;DHT22;10453;50.810;12.540;2024-03-29T16:10:58;16.20;99.90
20590;DHT22;10453;50.810;12.540;2024-03-29T16:15:14;15.90;99.90
20590;DHT22;10453;50.810;12.540;2024-03-29T16:19:30;15.80;99.90
20590;DHT22;10453;50.810;12.540;2024-03-29T16:23:47;15.70;99.90
20590;DHT22;10453;50.810;12.540;2024-03-29T16:28:04;15.60;99.90
20590;DHT22;10453;50.810;12.540;2024-03-29T16:32:21;15.60;99.90
20590;DHT22;10453;50.810;12.540;2024-03-29T16:36:39;15.80;99.90
20590;DHT22;10453;50.810;12.540;2024-03-29T16:40:56;15.80;99.90
20590;DHT22;10453;50.810;12.540;2024-03-29T16:45:12;15.70;99.90
20590;DHT22;10453;50.810;12.540;2024-03-29T16:49:29;15.60;99.90
20590;DHT22;10453;50.810;12.540;2024-03-29T16:53:45;15.50;99.90
20590;DHT22;10453;50.810;12.540;2024-03-29T16:58:02;15.30;99.90
20590;DHT22;10453;50.810;12.540;2024-03-29T17:02:19;15.20;99.90
20590;DHT22;10453;50.810;12.540;2024-03-29T17:06:35;15.20;99.90
20590;DHT22;10453;50.810;12.540;2024-03-29T17:10:52;15.20;99.90
20590;DHT22;10453;50.810;12.540;2024-03-29T17:15:09;15.10;99.90
20590;DHT22;10453;50.810;12.540;2024-03-29T17:19:32;15.00;99.90
20590;DHT22;10453;50.810;12.540;2024-03-29T17:23:49;14.90;99.90
20590;DHT22;10453;50.810;12.540;2024-03-29T17:28:05;14.80;99.90
20590;DHT22;10453;50.810;12.540;2024-03-29T17:32:22;14.80;99.90
20590;DHT22;10453;50.810;12.540;2024-03-29T17:36:39;14.70;99.90
20590;DHT22;10453;50.810;12.540;2024-03-29T17:40:56;14.60;99.90
20590;DHT22;10453;50.810;12.540;2024-03-29T17:45:12;14.30;99.90
20590;DHT22;10453;50.810;12.540;2024-03-29T17:49:28;14.40;99.90
20590;DHT22;10453;50.810;12.540;2024-03-29T17:53:45;14.30;99.90
20590;DHT22;10453;50.810;12.540;2024-03-29T17:58:01;14.30;99.90
20590;DHT22;10453;50.810;12.540;2024-03-29T18:02:17;14.10;99.90
20590;DHT22;10453;50.810;12.540;2024-03-29T18:06:33;14.20;99.90
20590;DHT22;10453;50.810;12.540;2024-03-29T18:10:50;14.10;99.90
20590;DHT22;10453;50.810;12.540;2024-03-29T18:15:06;13.90;99.90
20590;DHT22;10453;50.810;12.540;2024-03-29T18:19:22;13.90;99.90
20590;DHT22;10453;50.810;12.540;2024-03-29T18:23:39;13.90;99.90
20590;DHT22;10453;50.810;12.540;2024-03-29T18:27:55;13.80;99.90
20590;DHT22;10453;50.810;12.540;2024-03-29T18:32:11;13.60;99.90
20590;DHT22;10453;50.810;12.540;2024-03-29T18:36:28;13.30;99.90
20590;DHT22;10453;50.810;12.540;2024-03-29T18:40:44;13.10;99.90
20590;DHT22;10453;50.810;12.540;2024-03-29T18:45:00;12.90;99.90
20590;DHT22;10453;50.810;12.540;2024-03-29T18:49:17;12.80;99.90
20590;DHT22;10453;50.810;12.540;2024-03-29T18:53:33;12.50;99.90
20590;DHT22;10453;50.810;12.540;2024-03-29T18:57:52;12.30;99.90
20590;DHT22;10453;50.810;12.540;2024-03-29T19:02:08;12.30;99.90
20590;DHT22;10453;50.810;12.540;2024-03-29T19:06:25;12.10;99.90
20590;DHT22;10453;50.810;12.540;2024-03-29T19:10:43;12.00;99.90
20590;DHT22;10453;50.810;12.540;2024-03-29T19:14:59;11.80;99.90
20590;DHT22;10453;50.810;12.540;2024-03-29T19:19:22;11.60;99.90
20590;DHT22;10453;50.810;12.540;2024-03-29T19:23:40;11.50;99.90
20590;DHT22;10453;50.810;12.540;2024-03-29T19:27:56;11.30;99.90
20590;DHT22;10453;50.810;12.540;2024-03-29T19:32:12;11.00;99.90
20590;DHT22;10453;50.810;12.540;2024-03-29T19:36:29;10.80;99.90
20590;DHT22;10453;50.810;12.540;2024-03-29T19:40:46;10.70;99.90
20590;DHT22;10453;50.810;12.540;2024-03-29T19:45:03;10.50;99.90
20590;DHT22;10453;50.810;12.540;2024-03-29T19:49:19;10.20;99.90
20590;DHT22;10453;50.810;12.540;2024-03-29T19:53:35;10.00;99.90
20590;DHT22;10453;50.810;12.540;2024-03-29T19:57:52;9.80;99.90
20590;DHT22;10453;50.810;12.540;2024-03-29T20:02:08;9.60;99.90
20590;DHT22;10453;50.810;12.540;2024-03-29T20:06:24;9.50;99.90
20590;DHT22;10453;50.810;12.540;2024-03-29T20:10:41;9.40;99.90
20590;DHT22;10453;50.810;12.540;2024-03-29T20:14:58;9.20;99.90
20590;DHT22;10453;50.810;12.540;2024-03-29T20:19:14;9.10;99.90
20590;DHT22;10453;50.810;12.540;2024-03-29T20:23:30;9.10;99.90
20590;DHT22;10453;50.810;12.540;2024-03-29T20:27:47;9.10;99.90
20590;DHT22;10453;50.810;12.540;2024-03-29T20:32:04;9.00;99.90
20590;DHT22;10453;50.810;12.540;2024-03-29T20:36:24;9.00;99.90
20590;DHT22;10453;50.810;12.540;2024-03-29T20:40:40;9.00;99.90
20590;DHT22;10453;50.810;12.540;2024-03-29T20:44:59;9.00;99.90
20590;DHT22;10453;50.810;12.540;2024-03-29T20:49:21;9.00;99.90
20590;DHT22;10453;50.810;12.540;2024-03-29T20:53:37;8.90;99.90
20590;DHT22;10453;50.810;12.540;2024-03-29T20:57:53;8.90;99.90
20590;DHT22;10453;50.810;12.540;2024-03-29T21:02:09;8.90;99.90
20590;DHT22;10453;50.810;12.540;2024-03-29T21:06:44;8.90;99.90
20590;DHT22;10453;50.810;12.540;2024-03-29T21:11:00;8.90;99.90
20590;DHT22;10453;50.810;12.540;2024-03-29T21:15:17;8.80;99.90
20590;DHT22;10453;50.810;12.540;2024-03-29T21:19:33;8.70;99.90
20590;DHT22;10453;50.810;12.540;2024-03-29T21:23:49;8.80;99.90
20590;DHT22;10453;50.810;12.540;2024-03-29T21:28:06;8.70;99.90
20590;DHT22;10453;50.810;12.540;2024-03-29T21:32:22;8.60;99.90
20590;DHT22;10453;50.810;12.540;2024-03-29T21:36:38;8.60;99.90
20590;DHT22;10453;50.810;12.540;2024-03-29T21:40:55;8.50;99.90
20590;DHT22;10453;50.810;12.540;2024-03-29T21:45:11;8.50;99.90
20590;DHT22;10453;50.810;12.540;2024-03-29T21:49:27;8.50;99.90
20590;DHT22;10453;50.810;12.540;2024-03-29T21:53:43;8.40;99.90
20590;DHT22;10453;50.810;12.540;2024-03-29T21:58:00;8.40;99.90
20590;DHT22;10453;50.810;12.540;2024-03-29T22:02:18;8.20;99.90
20590;DHT22;10453;50.810;12.540;2024-03-29T22:06:34;8.30;99.90
20590;DHT22;10453;50.810;12.540;2024-03-29T22:10:51;8.40;99.90
20590;DHT22;10453;50.810;12.540;2024-03-29T22:15:08;8.30;99.90
20590;DHT22;10453;50.810;12.540;2024-03-29T22:19:25;8.20;99.90
20590;DHT22;10453;50.810;12.540;2024-03-29T22:23:41;8.10;99.90
20590;DHT22;10453;50.810;12.540;2024-03-29T22:27:58;8.20;99.90
20590;DHT22;10453;50.810;12.540;2024-03-29T22:32:14;8.20;99.90
20590;DHT22;10453;50.810;12.540;2024-03-29T22:36:31;8.20;99.90
20590;DHT22;10453;50.810;12.540;2024-03-29T22:40:49;8.10;99.90
20590;DHT22;10453;50.810;12.540;2024-03-29T22:45:05;8.20;99.90
20590;DHT22;10453;50.810;12.540;2024-03-29T22:49:23;8.00;99.90
20590;DHT22;10453;50.810;12.540;2024-03-29T22:53:40;8.00;99.90
20590;DHT22;10453;50.810;12.540;2024-03-29T22:57:56;8.00;99.90
20590;DHT22;10453;50.810;12.540;2024-03-29T23:02:12;8.00;99.90
20590;DHT22;10453;50.810;12.540;2024-03-29T23:06:29;8.00;99.90
20590;DHT22;10453;50.810;12.540;2024-03-29T23:10:49;7.90;99.90
20590;DHT22;10453;50.810;12.540;2024-03-29T23:15:06;7.80;99.90
20590;DHT22;10453;50.810;12.540;2024-03-29T23:19:23;7.80;99.90
20590;DHT22;10453;50.810;12.540;2024-03-29T23:23:39;7.70;99.90
20590;DHT22;10453;50.810;12.540;2024-03-29T23:27:56;7.60;99.90
20590;DHT22;10453;50.810;12.540;2024-03-29T23:32:12;7.50;99.90
20590;DHT22;10453;50.810;12.540;2024-03-29T23:36:29;7.50;99.90
20590;DHT22;10453;50.810;12.540;2024-03-29T23:40:55;7.50;99.90
20590;DHT22;10453;50.810;12.540;2024-03-29T23:45:11;7.50;99.90
20590;DHT22;10453;50.810;12.540;2024-03-29T23:49:28;7.40;99.90
20590;DHT22;10453;50.810;12.540;2024-03-29T23:53:44;7.30;99.90
20590;DHT22;10453;50.810;12.540;2024-03-29T23:58:00;7.20;99.90
